createdAt,value
2018-06-19T00:01:54.964Z,18.20
2018-06-19T00:04:23.205Z,18.20
2018-06-19T00:06:51.473Z,18.20
2018-06-19T00:09:19.714Z,18.10
2018-06-19T00:11:47.958Z,18.00
2018-06-19T00:14:16.217Z,18.00
2018-06-19T00:16:44.464Z,17.90
2018-06-19T00:19:12.765Z,17.90
2018-06-19T00:21:47.119Z,17.90
2018-06-19T00:24:15.398Z,17.90
2018-06-19T00:26:43.637Z,17.90
2018-06-19T00:29:11.894Z,17.90
2018-06-19T00:31:40.203Z,17.80
2018-06-19T00:34:08.419Z,17.70
2018-06-19T00:36:36.664Z,17.60
2018-06-19T00:39:07.609Z,17.60
2018-06-19T00:41:35.943Z,17.40
2018-06-19T00:44:04.221Z,17.40
2018-06-19T00:46:33.450Z,17.50
2018-06-19T00:49:01.719Z,17.50
2018-06-19T00:53:57.977Z,17.50
2018-06-19T00:56:37.775Z,17.60
2018-06-19T00:59:05.913Z,17.70
2018-06-19T01:01:34.123Z,17.60
2018-06-19T01:04:02.364Z,17.70
2018-06-19T01:06:30.612Z,17.80
2018-06-19T01:11:26.874Z,18.00
2018-06-19T01:13:55.153Z,18.10
2018-06-19T01:16:23.410Z,18.10
2018-06-19T01:18:51.671Z,18.00
2018-06-19T01:21:19.891Z,18.00
2018-06-19T01:23:48.146Z,17.90
2018-06-19T01:26:16.403Z,17.80
2018-06-19T01:28:44.664Z,17.80
2018-06-19T01:31:12.977Z,17.80
2018-06-19T01:33:41.203Z,17.80
2018-06-19T01:36:09.457Z,17.80
2018-06-19T01:38:37.715Z,17.80
2018-06-19T01:41:05.990Z,17.90
2018-06-19T01:43:34.273Z,18.00
2018-06-19T01:46:02.563Z,18.00
2018-06-19T01:48:30.800Z,18.10
2018-06-19T01:50:59.086Z,18.10
2018-06-19T01:53:27.320Z,18.10
2018-06-19T01:55:55.558Z,18.00
2018-06-19T02:00:51.815Z,17.90
2018-06-19T02:03:20.081Z,18.00
2018-06-19T02:05:48.345Z,17.90
2018-06-19T02:08:16.676Z,17.90
2018-06-19T02:10:44.940Z,17.80
2018-06-19T02:13:13.186Z,17.80
2018-06-19T02:15:41.417Z,17.60
2018-06-19T02:18:09.667Z,17.70
2018-06-19T02:20:37.940Z,17.70
2018-06-19T02:23:06.186Z,17.70
2018-06-19T02:25:34.453Z,17.70
2018-06-19T02:28:02.767Z,17.70
2018-06-19T02:30:31.054Z,17.70
2018-06-19T02:32:59.275Z,17.60
2018-06-19T02:35:27.560Z,17.60
2018-06-19T02:37:55.770Z,17.60
2018-06-19T02:40:24.024Z,17.50
2018-06-19T02:42:52.246Z,17.60
2018-06-19T02:45:20.472Z,17.60
2018-06-19T02:47:48.704Z,17.60
2018-06-19T02:50:16.915Z,17.60
2018-06-19T02:52:45.169Z,17.60
2018-06-19T02:55:13.433Z,17.60
2018-06-19T02:57:41.677Z,17.50
2018-06-19T03:00:09.913Z,17.50
2018-06-19T03:02:38.122Z,17.60
2018-06-19T03:07:34.334Z,17.70
2018-06-19T03:10:02.600Z,17.70
2018-06-19T03:12:30.873Z,17.70
2018-06-19T03:14:59.124Z,17.70
2018-06-19T03:17:27.357Z,17.60
2018-06-19T03:19:55.623Z,17.60
2018-06-19T03:22:23.902Z,17.60
2018-06-19T03:24:52.390Z,17.60
2018-06-19T03:27:20.647Z,17.60
2018-06-19T03:29:48.909Z,17.60
2018-06-19T03:32:17.143Z,17.70
2018-06-19T03:34:45.390Z,17.70
2018-06-19T03:37:13.642Z,17.60
2018-06-19T03:39:41.893Z,17.70
2018-06-19T03:42:10.130Z,17.60
2018-06-19T03:44:38.362Z,17.60
2018-06-19T03:47:06.574Z,17.70
2018-06-19T03:49:34.811Z,17.70
2018-06-19T03:52:03.085Z,17.70
2018-06-19T03:54:31.326Z,17.70
2018-06-19T03:56:59.654Z,17.70
2018-06-19T03:59:27.902Z,17.70
2018-06-19T04:01:56.171Z,17.60
2018-06-19T04:04:24.502Z,17.70
2018-06-19T04:06:52.750Z,17.70
2018-06-19T04:09:20.990Z,17.70
2018-06-19T04:11:49.238Z,17.70
2018-06-19T04:14:17.505Z,17.80
2018-06-19T04:16:45.727Z,17.80
2018-06-19T04:19:13.958Z,17.80
2018-06-19T04:24:10.197Z,17.80
2018-06-19T04:26:38.403Z,17.80
2018-06-19T04:31:34.631Z,17.70
2018-06-19T04:34:02.878Z,17.70
2018-06-19T04:38:59.147Z,17.50
2018-06-19T04:41:27.403Z,17.50
2018-06-19T04:43:55.702Z,17.40
2018-06-19T04:46:23.922Z,17.30
2018-06-19T04:48:52.141Z,17.30
2018-06-19T04:51:20.375Z,17.30
2018-06-19T04:53:48.603Z,17.20
2018-06-19T04:56:16.822Z,17.30
2018-06-19T04:58:45.089Z,17.20
2018-06-19T05:01:13.331Z,17.30
2018-06-19T05:06:09.588Z,17.30
2018-06-19T05:11:05.847Z,17.30
2018-06-19T05:13:34.123Z,17.30
2018-06-19T05:16:02.358Z,17.30
2018-06-19T05:18:30.605Z,17.40
2018-06-19T05:20:58.840Z,17.30
2018-06-19T05:23:27.090Z,17.20
2018-06-19T05:25:55.303Z,17.20
2018-06-19T05:28:23.509Z,17.20
2018-06-19T05:30:51.762Z,17.20
2018-06-19T05:33:19.967Z,17.20
2018-06-19T05:35:48.184Z,17.20
2018-06-19T05:38:16.433Z,17.20
2018-06-19T05:40:44.686Z,17.20
2018-06-19T05:43:12.959Z,17.20
2018-06-19T05:45:41.182Z,17.30
2018-06-19T05:48:09.417Z,17.30
2018-06-19T05:50:37.666Z,17.30
2018-06-19T05:58:01.913Z,17.40
2018-06-19T06:02:58.459Z,17.50
2018-06-19T06:05:26.679Z,17.50
2018-06-19T06:07:54.927Z,17.50
2018-06-19T06:10:23.167Z,17.50
2018-06-19T06:12:51.453Z,17.50
2018-06-19T06:17:47.891Z,17.60
2018-06-19T06:20:16.119Z,17.60
2018-06-19T06:22:44.339Z,17.60
2018-06-19T06:25:12.887Z,17.60
2018-06-19T06:27:41.114Z,17.50
2018-06-19T06:30:09.574Z,17.50
2018-06-19T06:32:37.797Z,17.50
2018-06-19T06:35:06.251Z,17.60
2018-06-19T06:37:35.091Z,17.60
2018-06-19T06:40:03.304Z,17.60
2018-06-19T06:42:31.557Z,17.50
2018-06-19T06:44:59.861Z,17.60
2018-06-19T06:47:28.128Z,17.50
2018-06-19T06:49:56.419Z,17.70
2018-06-19T06:52:24.665Z,17.70
2018-06-19T06:54:53.262Z,17.80
2018-06-19T06:57:21.513Z,17.80
2018-06-19T06:59:49.740Z,17.90
2018-06-19T07:02:17.975Z,18.00
2018-06-19T07:04:46.227Z,18.10
2018-06-19T07:09:42.454Z,18.10
2018-06-19T07:12:10.682Z,18.20
2018-06-19T07:14:38.906Z,18.30
2018-06-19T07:17:07.558Z,18.50
2018-06-19T07:19:35.827Z,18.60
2018-06-19T07:22:03.383Z,18.70
2018-06-19T07:24:30.916Z,18.80
2018-06-19T07:26:59.171Z,18.80
2018-06-19T07:29:27.431Z,18.60
2018-06-19T07:31:55.716Z,18.60
2018-06-19T07:34:23.963Z,18.80
2018-06-19T07:36:52.221Z,19.00
2018-06-19T07:39:20.423Z,19.10
2018-06-19T07:41:48.694Z,19.10
2018-06-19T07:44:16.918Z,18.90
2018-06-19T07:46:45.106Z,18.70
2018-06-19T07:49:13.343Z,18.60
2018-06-19T07:51:41.632Z,18.50
2018-06-19T07:54:09.897Z,18.50
2018-06-19T07:56:38.171Z,18.50
2018-06-19T07:59:05.671Z,18.50
2018-06-19T08:01:33.904Z,18.40
2018-06-19T08:04:02.168Z,18.40
2018-06-19T08:06:30.407Z,18.50
2018-06-19T08:08:58.731Z,18.70
2018-06-19T08:11:26.980Z,18.70
2018-06-19T08:13:55.192Z,18.80
2018-06-19T08:16:23.408Z,18.90
2018-06-19T08:18:51.691Z,19.00
2018-06-19T08:21:20.327Z,19.00
2018-06-19T08:23:48.586Z,19.10
2018-06-19T08:26:16.842Z,19.20
2018-06-19T08:28:45.078Z,19.20
2018-06-19T08:31:13.338Z,19.10
2018-06-19T08:33:41.579Z,19.10
2018-06-19T08:36:09.885Z,19.10
2018-06-19T08:38:38.082Z,19.20
2018-06-19T08:41:06.509Z,19.30
2018-06-19T08:43:34.738Z,19.50
2018-06-19T08:46:02.981Z,19.50
2018-06-19T08:48:31.203Z,19.50
2018-06-19T08:50:59.475Z,19.50
2018-06-19T08:58:23.646Z,19.50
2018-06-19T09:00:51.866Z,19.60
2018-06-19T09:03:20.119Z,19.70
2018-06-19T09:05:48.354Z,20.00
2018-06-19T09:08:16.591Z,20.10
2018-06-19T09:10:44.822Z,20.30
2018-06-19T09:13:13.265Z,20.40
2018-06-19T09:15:41.560Z,20.30
2018-06-19T09:18:09.795Z,20.40
2018-06-19T09:20:38.062Z,20.50
2018-06-19T09:23:06.307Z,20.60
2018-06-19T09:25:34.571Z,20.90
2018-06-19T09:28:02.813Z,20.90
2018-06-19T09:30:31.054Z,21.00
2018-06-19T09:32:59.323Z,20.90
2018-06-19T09:35:27.561Z,21.00
2018-06-19T09:37:55.789Z,21.30
2018-06-19T09:40:24.016Z,21.30
2018-06-19T09:42:52.315Z,21.30
2018-06-19T09:45:20.503Z,21.30
2018-06-19T09:47:48.762Z,21.20
2018-06-19T09:50:17.026Z,21.20
2018-06-19T09:52:45.394Z,21.20
2018-06-19T09:55:13.662Z,21.20
2018-06-19T09:57:41.901Z,21.20
2018-06-19T10:00:10.124Z,21.20
2018-06-19T10:07:34.337Z,20.90
2018-06-19T10:10:02.634Z,20.80
2018-06-19T10:12:30.873Z,20.80
2018-06-19T10:14:59.161Z,20.80
2018-06-19T10:17:27.417Z,21.00
2018-06-19T10:19:55.670Z,21.10
2018-06-19T10:22:23.944Z,21.20
2018-06-19T10:24:52.209Z,21.10
2018-06-19T10:27:20.460Z,21.10
2018-06-19T10:29:48.694Z,21.20
2018-06-19T10:32:16.966Z,21.40
2018-06-19T10:34:45.269Z,21.60
2018-06-19T10:37:13.517Z,21.60
2018-06-19T10:39:41.787Z,21.70
2018-06-19T10:42:10.044Z,21.90
2018-06-19T10:44:38.285Z,22.00
2018-06-19T10:47:06.522Z,21.90
2018-06-19T10:49:34.770Z,22.00
2018-06-19T10:52:03.021Z,22.10
2018-06-19T10:54:31.260Z,22.20
2018-06-19T10:56:59.519Z,22.50
2018-06-19T10:59:27.805Z,22.70
2018-06-19T11:01:56.053Z,22.90
2018-06-19T11:04:24.388Z,22.90
2018-06-19T11:06:52.674Z,23.00
2018-06-19T11:09:20.888Z,23.20
2018-06-19T11:11:49.143Z,23.40
2018-06-19T11:14:17.414Z,23.60
2018-06-19T11:16:45.673Z,23.80
2018-06-19T11:19:13.985Z,24.10
2018-06-19T11:21:42.221Z,24.10
2018-06-19T11:24:10.493Z,24.00
2018-06-19T11:26:38.699Z,24.10
2018-06-19T11:31:34.894Z,24.10
2018-06-19T11:34:03.247Z,23.80
2018-06-19T11:36:31.494Z,23.70
2018-06-19T11:38:59.730Z,23.50
2018-06-19T11:43:55.957Z,23.00
2018-06-19T11:46:24.208Z,22.90
2018-06-19T11:48:52.475Z,22.60
2018-06-19T11:51:20.725Z,22.50
2018-06-19T11:53:49.059Z,22.50
2018-06-19T11:56:17.316Z,22.40
2018-06-19T11:58:45.567Z,22.50
2018-06-19T12:01:13.861Z,22.80
2018-06-19T12:03:42.054Z,23.20
2018-06-19T12:06:10.333Z,23.40
2018-06-19T12:08:38.565Z,23.50
2018-06-19T12:11:06.809Z,23.30
2018-06-19T12:13:35.061Z,23.30
2018-06-19T12:18:31.332Z,23.50
2018-06-19T12:20:59.618Z,23.50
2018-06-19T12:25:55.845Z,23.30
2018-06-19T12:28:24.086Z,23.40
2018-06-19T12:30:52.439Z,23.60
2018-06-19T12:33:20.710Z,24.10
2018-06-19T12:35:48.972Z,24.90
2018-06-19T12:38:17.195Z,26.10
2018-06-19T12:40:45.523Z,26.20
2018-06-19T12:43:13.731Z,26.20
2018-06-19T12:45:42.070Z,26.00
2018-06-19T12:48:10.334Z,25.50
2018-06-19T12:52:03.545Z,25.00
2018-06-19T12:54:42.442Z,25.30
2018-06-19T12:57:10.674Z,25.90
2018-06-19T12:59:38.945Z,26.40
2018-06-19T13:02:07.193Z,26.60
2018-06-19T13:04:46.919Z,26.50
2018-06-19T13:07:15.168Z,26.30
2018-06-19T13:09:43.391Z,26.10
2018-06-19T13:13:22.595Z,26.00
2018-06-19T13:15:51.977Z,26.20
2018-06-19T13:20:53.778Z,26.00
2018-06-19T13:28:18.203Z,26.40
2018-06-19T13:30:57.915Z,26.90
2018-06-19T13:33:26.175Z,27.20
2018-06-19T13:35:54.417Z,27.30
2018-06-19T13:38:22.631Z,27.80
2018-06-19T13:41:04.566Z,28.10
2018-06-19T13:46:06.511Z,27.70
2018-06-19T13:48:34.750Z,27.50
2018-06-19T13:51:02.995Z,27.60
2018-06-19T13:53:31.547Z,28.10
2018-06-19T13:57:11.417Z,27.80
2018-06-19T14:02:08.209Z,26.70
2018-06-19T14:04:36.452Z,26.20
2018-06-19T14:07:05.969Z,25.80
2018-06-19T14:09:46.383Z,25.60
2018-06-19T14:12:29.770Z,25.40
2018-06-19T14:14:58.028Z,25.20
2018-06-19T14:17:26.272Z,25.30
2018-06-19T14:19:55.405Z,25.40
2018-06-19T14:24:52.502Z,25.40
2018-06-19T14:29:48.738Z,25.20
2018-06-19T14:32:16.971Z,24.90
2018-06-19T14:34:45.230Z,24.80
2018-06-19T14:37:13.462Z,24.60
2018-06-19T14:39:41.674Z,24.50
2018-06-19T14:42:09.928Z,24.40
2018-06-19T14:44:38.200Z,24.10
2018-06-19T14:49:34.375Z,23.60
2018-06-19T14:52:02.590Z,23.40
2018-06-19T14:54:30.888Z,23.20
2018-06-19T14:56:59.162Z,23.20
2018-06-19T14:59:27.378Z,23.10
2018-06-19T15:01:55.642Z,23.10
2018-06-19T15:04:24.214Z,23.00
2018-06-19T15:06:52.485Z,23.00
2018-06-19T15:11:48.710Z,23.20
2018-06-19T15:14:16.943Z,23.50
2018-06-19T15:19:13.160Z,23.90
2018-06-19T15:21:41.383Z,24.10
2018-06-19T15:24:09.694Z,24.10
2018-06-19T15:26:37.888Z,24.10
2018-06-19T15:29:06.140Z,24.00
2018-06-19T15:31:34.422Z,23.90
2018-06-19T15:34:02.677Z,24.00
2018-06-19T15:36:30.934Z,23.90
2018-06-19T15:38:59.170Z,23.80
2018-06-19T15:41:27.426Z,23.60
2018-06-19T15:43:55.639Z,23.50
2018-06-19T15:46:23.868Z,23.50
2018-06-19T15:48:52.101Z,23.40
2018-06-19T15:51:20.354Z,23.20
2018-06-19T15:56:16.591Z,23.20
2018-06-19T15:58:44.833Z,23.10
2018-06-19T16:01:13.085Z,23.20
2018-06-19T16:03:41.377Z,23.20
2018-06-19T16:06:09.657Z,23.40
2018-06-19T16:08:37.914Z,23.50
2018-06-19T16:11:06.162Z,23.50
2018-06-19T16:13:34.798Z,23.50
2018-06-19T16:16:03.039Z,23.50
2018-06-19T16:18:31.330Z,23.50
2018-06-19T16:20:59.564Z,23.40
2018-06-19T16:23:40.099Z,23.30
2018-06-19T16:26:08.331Z,22.90
2018-06-19T16:28:36.581Z,22.60
2018-06-19T16:31:04.822Z,22.60
2018-06-19T16:33:33.059Z,22.50
2018-06-19T16:36:01.332Z,22.50
2018-06-19T16:38:29.594Z,22.40
2018-06-19T16:40:57.841Z,22.40
2018-06-19T16:43:26.071Z,22.40
2018-06-19T16:45:54.327Z,22.50
2018-06-19T16:48:22.578Z,22.60
2018-06-19T16:50:50.804Z,22.70
2018-06-19T16:53:19.058Z,22.80
2018-06-19T16:55:47.288Z,22.90
2018-06-19T16:58:20.626Z,23.00
2018-06-19T17:00:53.157Z,23.10
2018-06-19T17:03:21.412Z,23.10
2018-06-19T17:08:35.092Z,22.70
2018-06-19T17:11:03.338Z,22.60
2018-06-19T17:13:31.559Z,22.50
2018-06-19T17:16:03.694Z,22.50
2018-06-19T17:18:32.031Z,22.40
2018-06-19T17:25:56.238Z,22.50
2018-06-19T17:28:25.565Z,22.50
2018-06-19T17:30:54.322Z,22.50
2018-06-19T17:33:22.551Z,22.40
2018-06-19T17:35:50.807Z,22.40
2018-06-19T17:38:19.113Z,22.40
2018-06-19T17:40:47.365Z,22.30
2018-06-19T17:43:15.667Z,22.20
2018-06-19T17:45:43.902Z,22.20
2018-06-19T17:48:12.153Z,22.10
2018-06-19T17:50:40.410Z,22.10
2018-06-19T17:53:08.639Z,22.00
2018-06-19T17:55:36.897Z,22.00
2018-06-19T17:58:05.111Z,22.00
2018-06-19T18:00:33.359Z,22.00
2018-06-19T18:03:01.623Z,21.90
2018-06-19T18:05:29.852Z,21.80
2018-06-19T18:07:59.264Z,21.70
2018-06-19T18:10:27.483Z,21.80
2018-06-19T18:12:55.890Z,21.80
2018-06-19T18:15:24.163Z,21.90
2018-06-19T18:17:52.373Z,21.90
2018-06-19T18:20:20.646Z,22.00
2018-06-19T18:22:48.886Z,22.00
2018-06-19T18:25:17.264Z,22.10
2018-06-19T18:27:45.511Z,22.20
2018-06-19T18:30:13.755Z,22.20
2018-06-19T18:32:41.988Z,22.10
2018-06-19T18:35:10.232Z,22.00
2018-06-19T18:37:38.467Z,22.00
2018-06-19T18:40:06.717Z,21.90
2018-06-19T18:42:35.008Z,21.90
2018-06-19T18:45:03.270Z,21.90
2018-06-19T18:47:31.511Z,21.90
2018-06-19T18:49:59.778Z,21.90
2018-06-19T18:52:27.996Z,21.90
2018-06-19T18:54:56.259Z,22.00
2018-06-19T18:57:24.478Z,22.00
2018-06-19T18:59:54.236Z,22.10
2018-06-19T19:04:54.417Z,22.20
2018-06-19T19:07:22.640Z,22.10
2018-06-19T19:09:56.340Z,22.10
2018-06-19T19:12:24.559Z,22.00
2018-06-19T19:15:57.171Z,22.10
2018-06-19T19:18:30.966Z,22.00
2018-06-19T19:21:00.016Z,21.90
2018-06-19T19:23:28.922Z,21.80
2018-06-19T19:25:57.187Z,21.80
2018-06-19T19:28:30.901Z,21.80
2018-06-19T19:30:59.232Z,21.60
2018-06-19T19:33:27.542Z,21.70
2018-06-19T19:36:00.744Z,21.60
2018-06-19T19:38:34.760Z,21.60
2018-06-19T19:41:03.050Z,21.60
2018-06-19T19:43:31.287Z,21.60
2018-06-19T19:45:59.508Z,21.60
2018-06-19T19:48:33.185Z,21.60
2018-06-19T19:51:01.482Z,21.60
2018-06-19T19:53:29.718Z,21.60
2018-06-19T19:56:03.269Z,21.70
2018-06-19T19:58:37.061Z,21.70
2018-06-19T20:01:05.298Z,21.70
2018-06-19T20:06:01.631Z,21.70
2018-06-19T20:08:29.871Z,21.70
2018-06-19T20:10:58.101Z,21.60
2018-06-19T20:13:26.338Z,21.70
2018-06-19T20:15:55.550Z,21.70
2018-06-19T20:20:52.748Z,21.60
2018-06-19T20:23:25.111Z,21.60
2018-06-19T20:25:55.491Z,21.70
2018-06-19T20:28:23.698Z,21.70
2018-06-19T20:30:51.938Z,21.60
2018-06-19T20:33:20.209Z,21.70
2018-06-19T20:35:53.870Z,21.60
2018-06-19T20:38:22.132Z,21.60
2018-06-19T20:40:50.434Z,21.60
2018-06-19T20:43:23.230Z,21.60
2018-06-19T20:45:55.561Z,21.60
2018-06-19T20:48:23.885Z,21.60
2018-06-19T20:53:20.146Z,21.50
2018-06-19T20:55:48.402Z,21.50
2018-06-19T20:58:16.673Z,21.50
2018-06-19T21:00:44.934Z,21.50
2018-06-19T21:03:13.189Z,21.50
2018-06-19T21:05:41.426Z,21.50
2018-06-19T21:08:09.734Z,21.50
2018-06-19T21:10:38.092Z,21.50
2018-06-19T21:13:06.360Z,21.40
2018-06-19T21:15:34.644Z,21.40
2018-06-19T21:18:02.881Z,21.40
2018-06-19T21:20:31.108Z,21.30
2018-06-19T21:22:59.491Z,21.30
2018-06-19T21:25:27.703Z,21.30
2018-06-19T21:27:55.958Z,21.30
2018-06-19T21:30:24.214Z,21.30
2018-06-19T21:32:52.715Z,21.30
2018-06-19T21:35:20.962Z,21.30
2018-06-19T21:40:17.221Z,21.20
2018-06-19T21:42:45.459Z,21.20
2018-06-19T21:45:13.687Z,21.20
2018-06-19T21:47:41.936Z,21.20
2018-06-19T21:50:10.197Z,21.20
2018-06-19T21:55:06.442Z,21.20
2018-06-19T21:57:34.701Z,21.20
2018-06-19T22:00:02.955Z,21.10
2018-06-19T22:02:32.655Z,21.10
2018-06-19T22:07:30.268Z,21.10
2018-06-19T22:09:58.511Z,21.10
2018-06-19T22:12:26.906Z,21.00
2018-06-19T22:14:55.135Z,21.00
2018-06-19T22:17:23.390Z,21.00
2018-06-19T22:19:51.631Z,21.00
2018-06-19T22:22:19.887Z,21.00
2018-06-19T22:24:48.382Z,21.00
2018-06-19T22:27:16.618Z,21.00
2018-06-19T22:29:44.863Z,21.00
2018-06-19T22:32:13.084Z,21.00
2018-06-19T22:34:41.429Z,21.00
2018-06-19T22:37:09.671Z,21.00
2018-06-19T22:39:37.860Z,21.00
2018-06-19T22:42:06.501Z,21.00
2018-06-19T22:44:34.834Z,21.00
2018-06-19T22:47:03.052Z,21.00
2018-06-19T22:49:31.314Z,21.00
2018-06-19T22:51:59.570Z,21.00
2018-06-19T22:54:27.813Z,21.00
2018-06-19T22:56:56.015Z,21.00
2018-06-19T22:59:24.259Z,21.00
2018-06-19T23:01:52.494Z,21.00
2018-06-19T23:04:20.740Z,21.00
2018-06-19T23:06:48.979Z,21.00
2018-06-19T23:11:45.234Z,20.90
2018-06-19T23:14:13.485Z,20.90
2018-06-19T23:16:41.730Z,20.90
2018-06-19T23:21:38.013Z,20.90
2018-06-19T23:24:06.262Z,20.90
2018-06-19T23:26:34.507Z,20.90
2018-06-19T23:29:02.712Z,20.90
2018-06-19T23:31:30.963Z,20.90
2018-06-19T23:36:27.173Z,20.90
2018-06-19T23:38:55.409Z,20.90
2018-06-19T23:41:23.867Z,20.90
2018-06-19T23:43:52.251Z,20.80
2018-06-19T23:46:20.496Z,20.80
2018-06-19T23:48:48.725Z,20.80
2018-06-19T23:51:16.951Z,20.70
2018-06-19T23:53:45.206Z,20.70
2018-06-19T23:56:13.453Z,20.70
2018-06-19T23:58:41.686Z,20.70
